Terminal Aerodrome Forecast
Issued by NWS Cleveland, OH

Home | Current Version | Previous Version | Graphics & Text | Print | Product List | Glossary On
Versions: 1 2 3 4 5 6 7 8 9 10 11 12 13 14 15 16 17 18 19 20 21 22 23 24
000
FTUS41 KCLE 181500 AAA
TAFCLE
TAF AMD
KCLE 181508Z 1815/1918 31006KT P6SM BKN150 BKN200
     FM182100 36008KT P6SM SCT045 OVC100
     FM190100 03005KT P6SM SCT045 BKN200=

USA.gov is the U.S. government's official web portal to all federal, state and local government web resources and services.